Time;durP1;ratioP1;P1;durP2;ratioP2;P2;SDS_P1;SDS_P2;PMS_P1;PMS_P2;Temp;Humidity;BMP_temperature;BMP_pressure;BME280_temperature;BME280_humidity;BME280_pressure;Samples;Min_cycle;Max_cycle;Signal;HPM_P1;HPM_P2
2022/09/15 00:01:40;;;;;;;2.67;1.70;;;16.80;99.90;;;16.59;100.00;96271.72;4935339;28;20442;-39
2022/09/15 00:04:07;;;;;;;4.22;1.70;;;16.80;99.90;;;16.61;100.00;96272.44;4941582;28;20106;-40
2022/09/15 00:06:34;;;;;;;3.75;1.60;;;16.90;99.90;;;16.63;100.00;96264.34;4922263;28;20118;-39
2022/09/15 00:09:00;;;;;;;2.72;1.40;;;16.80;99.90;;;16.59;100.00;96262.91;4928190;28;20183;-39
2022/09/15 00:11:30;;;;;;;2.45;1.58;;;16.80;99.90;;;16.61;100.00;96261.81;4937763;28;20499;-39
2022/09/15 00:14:00;;;;;;;3.47;2.40;;;16.90;99.90;;;16.60;100.00;96261.94;4935736;28;20130;-39
2022/09/15 00:16:29;;;;;;;4.03;1.90;;;16.80;99.90;;;16.59;100.00;96260.25;4934161;28;20066;-40
2022/09/15 00:18:55;;;;;;;3.38;1.85;;;16.80;99.90;;;16.56;100.00;96257.81;4922725;28;20055;-39
2022/09/15 00:21:29;;;;;;;3.58;1.77;;;16.80;99.90;;;16.52;100.00;96264.38;4936668;28;20023;-40
2022/09/15 00:23:55;;;;;;;4.60;1.92;;;16.80;99.90;;;16.47;100.00;96256.72;4915419;28;20037;-40
2022/09/15 00:26:24;;;;;;;2.88;2.00;;;16.70;99.90;;;16.46;100.00;96257.72;4914708;28;20391;-39
2022/09/15 00:28:50;;;;;;;2.60;1.98;;;16.70;99.90;;;16.45;100.00;96249.84;4946023;28;20251;-39
2022/09/15 00:31:22;;;;;;;2.65;1.77;;;16.70;99.90;;;16.46;100.00;96251.56;4918167;28;20039;-39
2022/09/15 00:33:49;;;;;;;2.85;2.10;;;16.70;99.90;;;16.31;100.00;96230.50;4943213;28;20174;-39
2022/09/15 00:36:16;;;;;;;2.17;1.88;;;16.70;99.90;;;16.47;100.00;96245.25;4937411;28;20035;-39
2022/09/15 00:38:43;;;;;;;4.90;2.03;;;16.70;99.90;;;16.49;100.00;96243.31;4937957;28;20036;-39
2022/09/15 00:41:17;;;;;;;4.85;1.90;;;16.70;99.90;;;16.50;100.00;96245.00;4938340;28;20408;-39
2022/09/15 00:44:22;;;;;;;3.00;1.50;;;16.70;99.90;;;16.39;100.00;96229.91;4937034;28;20081;-39
2022/09/15 00:46:52;;;;;;;3.55;1.40;;;16.70;99.90;;;16.47;100.00;96243.44;4947610;28;20030;-40
2022/09/15 00:49:29;;;;;;;2.17;1.65;;;16.70;99.90;;;16.48;100.00;96254.94;4921803;28;20035;-39
2022/09/15 00:52:21;;;;;;;3.28;1.77;;;16.70;99.90;;;16.47;100.00;96243.44;4937614;28;20023;-40
2022/09/15 00:54:51;;;;;;;3.03;1.95;;;16.70;99.90;;;16.47;100.00;96243.44;4941228;28;20043;-40
2022/09/15 00:57:23;;;;;;;2.38;1.75;;;16.70;99.90;;;16.47;100.00;96246.09;4928619;28;20563;-40
2022/09/15 00:59:51;;;;;;;3.00;1.58;;;16.70;99.90;;;16.47;100.00;96243.44;4944084;28;20035;-40
2022/09/15 01:02:34;;;;;;;3.97;1.52;;;16.70;99.90;;;16.47;100.00;96243.44;4929093;28;20042;-40
2022/09/15 01:05:06;;;;;;;3.58;1.60;;;16.70;99.90;;;16.46;100.00;96238.25;4925045;28;20038;-40
2022/09/15 01:07:52;;;;;;;4.70;1.80;;;16.70;99.90;;;16.38;100.00;96250.34;4946486;28;20023;-40
2022/09/15 01:10:33;;;;;;;2.08;1.42;;;16.70;99.90;;;16.33;100.00;96243.66;4943075;28;20574;-40
2022/09/15 01:13:07;;;;;;;3.25;1.85;;;16.60;99.90;;;16.30;100.00;96247.44;4937608;28;20149;-40
2022/09/15 01:15:51;;;;;;;2.25;1.40;;;16.50;99.90;;;16.20;100.00;96252.63;4948106;28;20028;-40
2022/09/15 01:18:22;;;;;;;5.45;1.80;;;16.50;99.90;;;16.14;100.00;96245.13;4943566;28;20532;-40
2022/09/15 01:21:04;;;;;;;2.90;1.55;;;16.40;99.90;;;16.06;100.00;96249.31;4936775;28;20125;-40
2022/09/15 01:24:05;;;;;;;2.85;1.70;;;16.40;99.90;;;16.11;100.00;96253.31;4925196;28;20456;-40
2022/09/15 01:26:59;;;;;;;2.15;1.50;;;16.40;99.90;;;16.13;100.00;96239.91;4937045;28;20066;-40
2022/09/15 01:29:47;;;;;;;3.13;2.20;;;16.40;99.90;;;16.11;100.00;96232.03;4940700;28;20723;-40
2022/09/15 01:33:03;;;;;;;4.00;1.90;;;16.40;99.90;;;16.13;100.00;96229.28;4919158;28;20039;-40
2022/09/15 01:35:51;;;;;;;3.45;1.50;;;16.40;99.90;;;16.18;100.00;96222.63;4916564;28;20056;-40
2022/09/15 01:38:41;;;;;;;1.80;1.58;;;16.40;99.90;;;16.19;100.00;96215.50;4936150;28;20469;-40
2022/09/15 01:41:17;;;;;;;2.65;1.65;;;16.40;99.90;;;16.20;100.00;96210.06;4934744;28;20447;-40
2022/09/15 01:44:14;;;;;;;3.42;1.65;;;16.50;99.90;;;16.21;100.00;96217.06;4945784;28;20122;-40
2022/09/15 01:46:46;;;;;;;4.00;1.60;;;16.50;99.90;;;16.22;100.00;96216.13;4940875;28;20038;-40
2022/09/15 01:49:19;;;;;;;2.47;1.60;;;16.50;99.90;;;16.21;100.00;96218.91;4920119;28;20039;-40
2022/09/15 01:51:47;;;;;;;4.07;1.67;;;16.50;99.90;;;16.26;100.00;96218.50;4926773;28;20030;-41
2022/09/15 01:54:15;;;;;;;2.17;1.45;;;16.50;99.90;;;16.27;100.00;96206.91;4940939;28;20426;-40
2022/09/15 01:56:42;;;;;;;4.05;1.60;;;16.50;99.90;;;16.18;100.00;96193.38;4928785;28;20043;-40
2022/09/15 01:59:08;;;;;;;2.03;1.48;;;16.50;99.90;;;16.30;100.00;96212.00;4917775;28;20125;-40
2022/09/15 02:01:46;;;;;;;2.70;1.80;;;16.50;99.90;;;16.19;100.00;96211.03;4933944;28;20031;-40
2022/09/15 02:04:45;;;;;;;2.72;1.65;;;16.50;99.90;;;16.21;100.00;96209.09;4924458;28;20034;-40
2022/09/15 02:07:25;;;;;;;3.95;1.52;;;16.50;99.90;;;16.21;100.00;96206.44;4924667;28;20043;-40
2022/09/15 02:10:12;;;;;;;2.22;1.52;;;16.50;99.90;;;16.20;100.00;96210.06;4941326;28;20109;-40
2022/09/15 02:12:51;;;;;;;2.22;1.77;;;16.50;99.90;;;16.21;100.00;96209.09;4919253;28;20245;-40
2022/09/15 02:15:27;;;;;;;1.58;1.40;;;16.50;99.90;;;16.22;100.00;96205.47;4923303;28;20042;-40
2022/09/15 02:17:54;;;;;;;3.97;1.40;;;16.50;99.90;;;16.24;100.00;96210.69;4924132;28;20053;-40
2022/09/15 02:20:47;;;;;;;2.05;1.27;;;16.50;99.90;;;16.29;100.00;96223.59;4910008;28;20495;-40
2022/09/15 02:23:27;;;;;;;5.57;1.50;;;16.50;99.90;;;16.31;100.00;96219.00;4921963;28;20495;-40
2022/09/15 02:26:03;;;;;;;1.52;1.08;;;16.60;99.90;;;16.27;100.00;96221.06;4928776;28;20567;-40
2022/09/15 02:28:34;;;;;;;3.22;1.50;;;16.60;99.90;;;16.11;100.00;96202.78;4920195;28;20031;-40
2022/09/15 02:31:02;;;;;;;4.72;1.40;;;16.50;99.90;;;16.21;100.00;96224.22;4921443;28;22269;-40
2022/09/15 02:33:39;;;;;;;2.95;1.45;;;16.50;99.90;;;16.19;100.00;96231.47;4921525;28;20034;-40
2022/09/15 02:36:07;;;;;;;4.50;1.65;;;16.50;99.90;;;16.18;100.00;96233.25;4929746;28;20356;-40
2022/09/15 02:38:40;;;;;;;3.40;1.27;;;16.40;99.90;;;16.17;100.00;96220.94;4929729;28;20042;-40
2022/09/15 02:41:05;;;;;;;;;;;16.40;99.90;;;16.18;100.00;96217.31;4923719;28;22793;-40
2022/09/15 02:43:32;;;;;;;4.20;1.50;;;16.50;99.90;;;16.18;100.00;96209.31;4938259;28;20363;-40
2022/09/15 02:45:58;;;;;;;3.53;1.42;;;16.50;99.90;;;16.20;100.00;96209.22;4932146;28;20419;-39
2022/09/15 02:48:24;;;;;;;3.42;1.33;;;16.50;99.90;;;16.22;100.00;96208.13;4994048;23;20057;-49
2022/09/15 02:50:50;;;;;;;2.78;1.50;;;16.50;99.90;;;16.26;100.00;96210.53;4989928;28;20095;-50
2022/09/15 02:53:15;;;;;;;2.78;1.40;;;16.50;99.90;;;16.26;100.00;96206.09;4991655;28;20041;-49
2022/09/15 02:55:41;;;;;;;3.55;1.35;;;16.50;99.90;;;16.25;100.00;96200.88;4995010;28;20387;-50
2022/09/15 02:58:07;;;;;;;2.08;1.30;;;16.50;99.90;;;16.20;100.00;96203.88;4988803;28;20497;-48
2022/09/15 03:00:33;;;;;;;0.90;0.90;;;16.50;99.90;;;16.16;100.00;96203.28;4990248;28;20040;-50
2022/09/15 03:02:58;;;;;;;2.63;1.10;;;16.40;99.90;;;16.11;100.00;96194.81;4988445;28;20112;-49
2022/09/15 03:05:29;;;;;;;1.10;1.00;;;16.40;99.90;;;16.05;100.00;96197.97;4994823;28;20176;-50
2022/09/15 03:07:55;;;;;;;3.53;1.50;;;16.40;99.90;;;16.07;100.00;96205.84;4990008;28;20160;-50
2022/09/15 03:10:23;;;;;;;1.52;1.17;;;16.30;99.90;;;16.06;100.00;96215.63;4958580;28;20556;-48
2022/09/15 03:12:52;;;;;;;4.78;1.30;;;16.30;99.90;;;16.02;100.00;96207.03;4989163;28;20038;-50
2022/09/15 03:15:24;;;;;;;2.25;1.10;;;16.30;99.90;;;16.01;100.00;96202.69;4989123;28;20135;-50
2022/09/15 03:17:50;;;;;;;1.40;1.13;;;16.30;99.90;;;15.96;100.00;96196.88;4971753;28;20037;-48
2022/09/15 03:20:21;;;;;;;2.65;1.10;;;16.30;99.90;;;15.95;100.00;96192.53;4996402;28;20120;-48
2022/09/15 03:22:48;;;;;;;1.88;1.20;;;16.20;99.90;;;15.99;100.00;96199.28;4992000;28;20040;-49
2022/09/15 03:25:14;;;;;;;2.72;1.50;;;16.30;99.90;;;15.99;100.00;96206.44;4994427;28;20069;-50
2022/09/15 03:27:41;;;;;;;2.60;1.15;;;16.30;99.90;;;16.00;100.00;96210.78;4991552;28;20080;-50
2022/09/15 03:30:08;;;;;;;1.70;1.10;;;16.30;99.90;;;15.95;100.00;96199.63;4996323;28;20041;-50
2022/09/15 03:32:34;;;;;;;4.22;1.35;;;16.20;99.90;;;15.90;100.00;96204.47;4986605;28;20026;-48
2022/09/15 03:35:00;;;;;;;1.48;1.10;;;16.20;99.90;;;15.89;100.00;96203.63;4979858;28;20058;-50
2022/09/15 03:37:26;;;;;;;1.27;1.08;;;16.20;99.90;;;15.82;100.00;96203.25;4996703;28;20038;-51
2022/09/15 03:39:52;;;;;;;2.00;1.27;;;16.10;99.90;;;15.79;100.00;96206.16;5000903;28;20101;-50
2022/09/15 03:42:18;;;;;;;1.65;1.13;;;16.10;99.90;;;15.77;100.00;96197.47;4998192;28;20041;-49
2022/09/15 03:44:44;;;;;;;1.63;1.02;;;16.00;99.90;;;15.74;100.00;96200.34;4997277;28;20034;-50
2022/09/15 03:47:10;;;;;;;1.65;1.20;;;16.00;99.90;;;15.75;100.00;96198.53;4995758;28;20030;-49
2022/09/15 03:49:35;;;;;;;1.77;1.10;;;16.00;99.90;;;15.75;100.00;96199.38;4990764;28;20473;-47
2022/09/15 03:52:01;;;;;;;3.10;1.15;;;16.00;99.90;;;15.77;100.00;96192.16;4994316;28;20489;-50
2022/09/15 03:54:27;;;;;;;4.43;1.35;;;16.00;99.90;;;15.75;100.00;96199.38;4996655;28;20030;-50
2022/09/15 03:56:52;;;;;;;1.75;1.27;;;16.00;99.90;;;15.73;100.00;96195.13;4997265;28;20742;-50
2022/09/15 03:59:19;;;;;;;3.45;1.13;;;16.00;99.90;;;15.71;100.00;96197.88;4997670;28;20486;-51
2022/09/15 04:01:47;;;;;;;2.13;1.20;;;16.00;99.90;;;15.70;100.00;96203.31;4992442;28;20034;-49
2022/09/15 04:04:13;;;;;;;2.13;1.13;;;16.00;99.90;;;15.71;100.00;96213.81;4995930;28;20030;-50
2022/09/15 04:06:39;;;;;;;5.72;1.30;;;16.00;99.90;;;15.69;100.00;96210.44;4996307;28;20498;-49
2022/09/15 04:09:04;;;;;;;2.10;1.30;;;16.00;99.90;;;15.68;100.00;96211.41;4988474;28;20076;-49
2022/09/15 04:11:30;;;;;;;1.95;1.15;;;16.00;99.90;;;15.66;100.00;96203.53;4989599;28;20034;-48
2022/09/15 04:13:56;;;;;;;1.92;1.50;;;15.90;99.90;;;15.70;100.00;96198.00;4985251;28;20034;-50
2022/09/15 04:16:24;;;;;;;2.70;1.30;;;16.00;99.90;;;15.68;100.00;96197.28;4985953;28;20034;-51
2022/09/15 04:18:54;;;;;;;2.55;1.50;;;16.00;99.90;;;15.72;100.00;96199.59;4991302;28;20091;-49
2022/09/15 04:21:23;;;;;;;1.73;1.10;;;16.00;99.90;;;15.76;100.00;96201.06;4997984;28;20057;-49
2022/09/15 04:23:50;;;;;;;2.67;1.25;;;16.10;99.90;;;15.79;100.00;96200.84;4993057;28;20112;-50
2022/09/15 04:26:31;;;;;;;4.07;1.00;;;16.10;99.90;;;15.85;100.00;96199.53;4981030;28;20045;-50
2022/09/15 04:28:58;;;;;;;3.70;1.30;;;16.10;99.90;;;15.88;100.00;96201.94;4995337;28;20524;-49
2022/09/15 04:31:24;;;;;;;1.98;1.45;;;16.20;99.90;;;15.91;100.00;96196.38;4993799;28;20061;-48
2022/09/15 04:33:54;;;;;;;3.25;1.33;;;16.20;99.90;;;15.96;100.00;96196.88;4994597;28;20454;-50
2022/09/15 04:36:26;;;;;;;2.83;1.20;;;16.20;99.90;;;16.00;100.00;96198.31;4999222;28;20033;-49
2022/09/15 04:38:52;;;;;;;2.63;1.50;;;16.30;99.90;;;15.99;100.00;96201.97;4992982;28;20085;-49
2022/09/15 04:41:18;;;;;;;1.48;1.13;;;16.30;99.90;;;15.98;100.00;96197.59;4996316;28;20041;-50
2022/09/15 04:43:44;;;;;;;4.82;1.17;;;16.30;99.90;;;15.94;100.00;96193.47;4997161;28;20034;-49
2022/09/15 04:46:12;;;;;;;2.40;1.10;;;16.30;99.90;;;15.97;100.00;96192.38;4993935;28;20457;-47
2022/09/15 04:48:38;;;;;;;3.55;1.20;;;16.30;99.90;;;15.96;100.00;96204.84;4978157;28;20073;-48
2022/09/15 04:51:08;;;;;;;2.83;1.40;;;16.30;99.90;;;15.95;100.00;96183.69;4965917;28;20034;-49
2022/09/15 04:53:34;;;;;;;1.95;1.25;;;16.30;99.90;;;16.00;100.00;96190.34;4974987;28;20498;-48
2022/09/15 04:56:07;;;;;;;5.03;1.83;;;16.30;99.90;;;16.01;100.00;96194.69;4978559;28;20045;-46
2022/09/15 04:58:49;;;;;;;2.17;1.25;;;16.30;99.90;;;16.02;100.00;96192.88;4975870;28;20120;-51
2022/09/15 05:01:18;;;;;;;3.25;1.40;;;16.30;99.90;;;16.06;100.00;96207.66;4995784;28;20038;-49
2022/09/15 05:03:45;;;;;;;4.35;1.58;;;16.40;99.90;;;16.08;100.00;96207.50;4989433;28;22871;-49
2022/09/15 05:06:14;;;;;;;2.10;1.08;;;16.30;99.90;;;16.11;100.00;96218.75;4974938;28;20065;-48
2022/09/15 05:08:40;;;;;;;3.38;1.50;;;16.40;99.90;;;16.11;100.00;96205.44;4991262;28;20033;-47
2022/09/15 05:11:10;;;;;;;3.65;1.35;;;16.40;99.90;;;16.14;100.00;96221.19;4996179;28;20042;-48
2022/09/15 05:13:37;;;;;;;6.30;1.38;;;16.40;99.90;;;16.15;100.00;96217.56;4997496;28;20390;-48
2022/09/15 05:16:12;;;;;;;1.63;1.20;;;16.40;99.90;;;16.18;100.00;96216.47;4994805;28;20041;-51
2022/09/15 05:18:40;;;;;;;2.67;1.60;;;16.40;99.90;;;16.21;100.00;96225.06;4996872;28;20406;-47
2022/09/15 05:21:08;;;;;;;2.72;1.33;;;16.50;99.90;;;16.27;100.00;96231.69;4992368;28;20290;-46
2022/09/15 05:23:35;;;;;;;1.95;1.20;;;16.50;99.90;;;16.29;100.00;96235.06;5000228;28;20365;-50
2022/09/15 05:26:05;;;;;;;2.78;1.25;;;16.60;99.90;;;16.31;100.00;96233.16;4993835;28;20041;-50
2022/09/15 05:28:36;;;;;;;2.00;1.40;;;16.60;99.90;;;16.34;100.00;96232.91;4980206;28;20025;-48
2022/09/15 05:31:08;;;;;;;1.45;1.20;;;16.60;99.90;;;16.36;100.00;96235.44;4996621;28;20521;-47
2022/09/15 05:33:34;;;;;;;;;;;16.60;99.90;;;16.38;100.00;96233.50;4979900;28;20112;-50
2022/09/15 05:36:00;;;;;;;4.68;1.60;;;16.70;99.90;;;16.41;100.00;96228.78;4992986;28;19925;-47
2022/09/15 05:38:29;;;;;;;2.72;1.55;;;16.70;99.90;;;16.36;100.00;96217.66;5002796;28;20033;-47
2022/09/15 05:41:20;;;;;;;3.00;1.33;;;16.70;99.90;;;16.47;100.00;96232.78;5000632;28;20028;-48
2022/09/15 05:43:47;;;;;;;2.47;1.27;;;16.80;99.90;;;16.50;100.00;96229.03;5001525;28;20026;-49
2022/09/15 05:46:14;;;;;;;2.85;1.38;;;16.80;99.90;;;16.51;100.00;96236.03;5000653;28;20453;-47
2022/09/15 05:48:40;;;;;;;2.53;1.40;;;16.80;99.90;;;16.50;100.00;96231.72;4999499;28;20385;-48
2022/09/15 05:51:06;;;;;;;2.22;1.10;;;16.80;99.90;;;16.52;100.00;96241.25;5001964;28;20026;-48
2022/09/15 05:53:34;;;;;;;2.40;1.27;;;16.80;99.90;;;16.51;100.00;96228.06;5000596;28;20034;-49
2022/09/15 05:56:10;;;;;;;2.83;1.40;;;16.80;99.90;;;16.54;100.00;96234.00;4997477;28;20029;-47
2022/09/15 05:58:39;;;;;;;2.85;1.20;;;16.80;99.90;;;16.59;100.00;96237.13;5001045;28;20065;-48
2022/09/15 06:01:18;;;;;;;4.30;1.73;;;16.90;99.90;;;16.68;100.00;96234.72;4997495;28;20034;-48
2022/09/15 06:03:45;;;;;;;3.13;1.30;;;16.90;99.90;;;16.72;100.00;96237.00;4994764;28;20069;-48
2022/09/15 06:06:11;;;;;;;6.75;1.35;;;17.00;99.90;;;16.83;100.00;96243.28;4999458;28;20045;-46
2022/09/15 06:08:41;;;;;;;2.15;1.30;;;17.10;99.90;;;16.89;100.00;96238.34;4992698;28;20029;-48
2022/09/15 06:11:19;;;;;;;1.90;1.40;;;17.20;99.90;;;16.95;100.00;96229.00;4976919;28;20052;-48
2022/09/15 06:13:46;;;;;;;2.33;1.20;;;17.20;99.90;;;17.06;100.00;96228.97;4996780;28;20034;-46
2022/09/15 06:16:21;;;;;;;4.78;1.42;;;17.40;99.90;;;17.18;100.00;96229.78;4996540;28;20095;-49
2022/09/15 06:18:49;;;;;;;2.05;1.30;;;17.50;99.90;;;17.27;100.00;96234.38;4998620;28;20038;-51
2022/09/15 06:21:18;;;;;;;2.30;1.20;;;17.60;99.90;;;17.31;100.00;96238.47;4999751;28;20037;-48
2022/09/15 06:23:44;;;;;;;4.60;1.38;;;17.60;99.90;;;17.33;100.00;96238.34;4999516;28;20038;-48
2022/09/15 06:26:16;;;;;;;1.45;1.00;;;17.60;99.90;;;17.27;100.00;96246.84;4996378;28;20425;-50
2022/09/15 06:28:51;;;;;;;2.13;1.00;;;17.50;99.90;;;17.18;100.00;96237.78;4999036;28;20025;-48
2022/09/15 06:31:17;;;;;;;2.80;1.10;;;17.50;99.90;;;17.04;100.00;96256.72;4997108;28;20038;-50
2022/09/15 06:33:47;;;;;;;2.85;1.25;;;17.40;99.90;;;16.94;100.00;96252.13;4997340;28;20101;-49
2022/09/15 06:36:14;;;;;;;4.40;1.50;;;17.20;99.90;;;16.90;100.00;96247.16;4997276;28;20030;-46
2022/09/15 06:38:40;;;;;;;1.38;0.90;;;17.20;99.90;;;16.83;100.00;96261.91;4997557;28;20256;-47
2022/09/15 06:41:07;;;;;;;2.25;1.10;;;17.10;99.90;;;16.80;100.00;96263.88;4998670;28;20033;-47
2022/09/15 06:43:33;;;;;;;1.98;0.98;;;17.10;99.90;;;16.73;100.00;96269.81;4998166;28;20041;-47
2022/09/15 06:46:11;;;;;;;1.65;0.95;;;17.00;99.90;;;16.65;100.00;96270.41;4996409;28;20037;-48
2022/09/15 06:48:38;;;;;;;2.90;1.30;;;16.90;99.90;;;16.59;100.00;96268.22;4999037;28;20057;-48
2022/09/15 06:51:06;;;;;;;4.60;1.40;;;16.90;99.90;;;16.53;100.00;96277.56;4993412;28;20029;-47
2022/09/15 06:53:35;;;;;;;3.60;1.30;;;16.80;99.90;;;16.48;100.00;96290.38;4996547;28;20180;-45
2022/09/15 06:56:07;;;;;;;4.38;1.48;;;16.70;99.90;;;16.44;100.00;96274.75;4992791;28;20045;-47
2022/09/15 06:58:34;;;;;;;;;;;16.70;99.90;;;16.34;100.00;96275.47;4998654;28;20094;-50
2022/09/15 07:01:26;;;;;;;2.78;0.95;;;16.60;99.90;;;16.32;100.00;96276.56;4997535;28;19951;-50
2022/09/15 07:03:52;;;;;;;6.85;1.65;;;16.60;99.90;;;16.29;100.00;96274.16;4988722;28;20069;-47
2022/09/15 07:06:19;;;;;;;4.65;1.20;;;16.60;99.90;;;16.28;100.00;96275.13;4999687;28;20033;-47
2022/09/15 07:08:45;;;;;;;1.33;0.93;;;16.50;99.90;;;16.29;100.00;96282.13;4993342;28;20382;-47
2022/09/15 07:11:12;;;;;;;2.30;1.17;;;16.50;99.90;;;16.25;100.00;96281.50;4999191;28;20036;-49
2022/09/15 07:13:38;;;;;;;3.00;1.10;;;16.50;99.90;;;16.19;100.00;96272.22;5000643;28;20041;-48
2022/09/15 07:16:07;;;;;;;1.83;1.10;;;16.50;99.90;;;16.14;100.00;96266.38;4997558;28;20038;-49
2022/09/15 07:18:34;;;;;;;2.50;1.10;;;16.50;99.90;;;16.21;100.00;96278.25;4998585;28;20107;-50
2022/09/15 07:21:06;;;;;;;3.03;1.00;;;16.50;99.90;;;16.21;100.00;96286.22;4997445;28;20091;-48
2022/09/15 07:23:33;;;;;;;;;;;16.50;99.90;;;16.16;100.00;96276.91;4995725;28;20030;-48
2022/09/15 07:26:26;;;;;;;1.25;0.93;;;16.50;99.90;;;16.23;100.00;96286.94;4996322;28;19925;-50
2022/09/15 07:28:56;;;;;;;2.92;1.40;;;16.50;99.90;;;16.29;100.00;96290.09;4994991;28;20703;-47
2022/09/15 07:31:25;;;;;;;1.67;1.02;;;16.50;99.90;;;16.35;100.00;96292.31;4994915;28;20042;-49
2022/09/15 07:33:51;;;;;;;2.05;0.85;;;16.60;99.90;;;16.40;100.00;96284.78;4997377;28;20029;-48
2022/09/15 07:36:17;;;;;;;1.55;0.90;;;16.70;99.90;;;16.49;100.00;96289.41;4993368;28;20046;-50
2022/09/15 07:38:46;;;;;;;2.50;0.88;;;16.70;99.90;;;16.57;100.00;96292.31;4994299;28;20041;-46
2022/09/15 07:41:23;;;;;;;1.13;0.88;;;16.80;99.90;;;16.65;100.00;96299.69;4998740;28;20041;-46
2022/09/15 07:43:51;;;;;;;0.90;0.90;;;16.90;99.90;;;16.67;100.00;96286.25;4992709;28;20045;-51
2022/09/15 07:46:19;;;;;;;1.45;0.70;;;16.90;99.90;;;16.74;100.00;96298.09;4995686;28;20710;-46
2022/09/15 07:48:50;;;;;;;2.50;0.90;;;17.00;99.90;;;16.78;100.00;96294.25;4994844;28;20030;-46
2022/09/15 07:51:17;;;;;;;1.98;0.98;;;17.00;99.90;;;16.83;100.00;96297.41;4993099;28;20041;-50
2022/09/15 07:53:47;;;;;;;4.47;1.00;;;17.10;99.90;;;16.87;100.00;96301.53;4993174;28;20107;-49
2022/09/15 07:56:13;;;;;;;1.90;0.90;;;17.10;99.90;;;16.89;100.00;96307.56;4979542;28;20029;-47
2022/09/15 07:58:39;;;;;;;1.80;0.75;;;17.10;99.90;;;16.92;100.00;96310.00;4977918;28;20472;-47
2022/09/15 08:01:10;;;;;;;2.08;0.80;;;17.20;99.90;;;16.93;100.00;96306.34;4992983;28;20041;-49
2022/09/15 08:03:42;;;;;;;1.38;0.70;;;17.20;99.90;;;16.94;100.00;96308.06;4977826;28;20068;-47
2022/09/15 08:06:09;;;;;;;1.45;0.80;;;17.20;99.90;;;16.92;100.00;96317.13;4999071;28;20110;-47
2022/09/15 08:08:37;;;;;;;1.73;0.70;;;17.20;99.90;;;16.90;100.00;96308.41;4990611;28;20033;-49
2022/09/15 08:11:08;;;;;;;1.45;0.93;;;17.20;99.90;;;16.91;100.00;96312.78;4992842;28;20354;-48
2022/09/15 08:13:34;;;;;;;2.63;0.80;;;17.20;99.90;;;16.94;100.00;96316.06;4998989;28;20543;-51
2022/09/15 08:16:15;;;;;;;1.70;0.73;;;17.20;99.90;;;16.96;100.00;96322.09;4974380;28;20050;-48
2022/09/15 08:18:43;;;;;;;1.20;0.75;;;17.20;99.90;;;16.98;100.00;96322.81;4993099;28;20029;-46
2022/09/15 08:21:21;;;;;;;1.10;0.85;;;17.20;99.90;;;17.01;100.00;96328.88;4997577;28;20041;-47
2022/09/15 08:23:58;;;;;;;4.10;0.93;;;17.30;99.90;;;16.95;100.00;96336.38;4991342;28;20493;-47
2022/09/15 08:26:25;;;;;;;1.77;0.90;;;17.20;99.90;;;16.93;100.00;96340.13;4995863;28;20466;-46
2022/09/15 08:28:51;;;;;;;1.23;0.80;;;17.20;99.90;;;16.88;100.00;96335.16;4990651;28;20030;-50
2022/09/15 08:31:17;;;;;;;1.02;0.68;;;17.20;99.90;;;16.90;100.00;96335.88;4997972;28;20498;-47
2022/09/15 08:33:52;;;;;;;1.40;0.88;;;17.20;99.90;;;17.03;100.00;96337.56;4993272;28;20073;-50
2022/09/15 08:36:19;;;;;;;1.52;0.88;;;17.20;99.90;;;17.11;100.00;96329.84;4996594;28;20038;-50
2022/09/15 08:38:45;;;;;;;1.85;0.90;;;17.40;99.90;;;17.23;100.00;96334.16;4996519;28;20118;-50
2022/09/15 08:41:37;;;;;;;3.13;1.15;;;17.40;99.90;;;17.28;100.00;96336.44;4975962;28;20037;-48
2022/09/15 08:44:16;;;;;;;5.03;2.83;;;17.50;99.90;;;17.35;100.00;96341.19;4981817;28;20042;-52
2022/09/15 08:47:14;;;;;;;2.50;1.70;;;17.60;99.90;;;17.46;100.00;96342.09;5009396;23;20292;-39
2022/09/15 08:49:55;;;;;;;2.38;1.08;;;17.70;99.90;;;17.59;100.00;96349.97;4968773;28;20061;-40
2022/09/15 08:52:29;;;;;;;1.45;0.80;;;17.80;99.90;;;17.72;100.00;96350.63;4978050;28;20038;-40
2022/09/15 08:54:57;;;;;;;1.73;1.00;;;18.00;99.90;;;17.79;100.00;96356.31;4978003;28;20415;-40
2022/09/15 08:57:24;;;;;;;2.78;1.05;;;18.10;99.90;;;17.96;100.00;96355.78;4952322;28;20676;-40
2022/09/15 08:59:53;;;;;;;1.70;1.10;;;18.30;99.90;;;18.21;100.00;96364.41;4971112;28;20034;-40
2022/09/15 09:02:38;;;;;;;1.80;0.98;;;18.50;99.90;;;18.46;100.00;96363.16;4973241;28;20037;-40
2022/09/15 09:05:33;;;;;;;1.63;0.90;;;18.80;99.90;;;18.65;100.00;96362.44;4980503;28;20030;-40
2022/09/15 09:08:33;;;;;;;1.58;0.93;;;19.00;99.90;;;18.73;100.00;96361.78;4979498;28;20042;-40
2022/09/15 09:11:16;;;;;;;1.95;0.70;;;19.10;99.90;;;18.79;100.00;96366.56;4977053;28;20034;-40
2022/09/15 09:14:06;;;;;;;5.20;1.15;;;19.10;99.90;;;18.88;100.00;96366.66;4977688;28;20125;-40
2022/09/15 09:16:50;;;;;;;4.97;2.15;;;19.20;99.90;;;18.79;100.00;96356.75;4975860;28;20489;-40
2022/09/15 09:19:52;;;;;;;5.25;1.90;;;19.30;99.90;;;19.02;100.00;96365.47;4959589;28;20045;-40
2022/09/15 09:22:23;;;;;;;6.05;4.07;;;19.40;99.90;;;19.14;100.00;96379.56;4976532;28;20038;-40
2022/09/15 09:24:59;;;;;;;4.07;1.20;;;19.50;99.90;;;19.04;100.00;96387.56;4958609;28;20359;-40
2022/09/15 09:27:33;;;;;;;2.42;1.33;;;19.50;99.90;;;18.96;100.00;96374.00;4976728;28;21141;-40
2022/09/15 09:30:21;;;;;;;3.22;0.70;;;19.30;99.90;;;18.66;100.00;96377.47;4963311;28;20486;-40
2022/09/15 09:33:19;;;;;;;0.63;0.40;;;19.00;99.90;;;18.22;100.00;96380.28;4959086;28;20050;-40
2022/09/15 09:35:50;;;;;;;1.02;0.50;;;18.70;99.90;;;17.91;100.00;96384.69;4979414;28;20034;-40
2022/09/15 09:38:25;;;;;;;1.00;0.40;;;18.30;99.90;;;17.74;100.00;96378.00;4979384;28;20030;-40
2022/09/15 09:40:51;;;;;;;1.05;0.40;;;18.10;99.90;;;17.54;100.00;96374.31;4959487;28;20288;-40
2022/09/15 09:43:18;;;;;;;0.63;0.30;;;17.90;99.90;;;17.49;100.00;96380.00;4958735;28;20038;-40
2022/09/15 09:45:44;;;;;;;0.85;0.40;;;17.80;99.90;;;17.34;100.00;96376.78;4957046;28;20030;-40
2022/09/15 09:48:19;;;;;;;1.05;0.45;;;17.70;99.90;;;17.26;100.00;96381.88;4973369;28;20576;-40
2022/09/15 09:50:46;;;;;;;1.95;0.40;;;17.50;99.90;;;17.16;100.00;96373.78;4977439;28;20038;-38
2022/09/15 09:53:17;;;;;;;0.75;0.40;;;17.50;99.90;;;17.09;100.00;96366.41;4976436;28;20532;-40
2022/09/15 09:55:44;;;;;;;2.60;0.73;;;17.40;99.90;;;16.97;100.00;96358.41;4979403;28;20042;-40
2022/09/15 09:58:20;;;;;;;2.03;0.88;;;17.30;99.90;;;16.84;100.00;96360.34;4973762;28;20038;-40
2022/09/15 10:00:46;;;;;;;4.75;0.75;;;17.10;99.90;;;16.64;100.00;96342.41;4960301;28;20026;-40
2022/09/15 10:03:20;;;;;;;3.97;0.70;;;17.00;99.90;;;16.59;100.00;96364.03;4974064;28;20498;-39
2022/09/15 10:06:03;;;;;;;3.25;0.50;;;16.90;99.90;;;16.37;100.00;96354.22;4977252;28;20026;-40
2022/09/15 10:08:29;;;;;;;3.15;0.60;;;16.70;99.90;;;16.21;100.00;96349.22;4974390;28;20072;-40
2022/09/15 10:11:09;;;;;;;2.40;0.50;;;16.60;99.90;;;16.16;100.00;96364.69;4974955;28;20034;-40
2022/09/15 10:13:36;;;;;;;1.35;0.43;;;16.50;99.90;;;16.15;100.00;96365.63;4975622;28;20019;-40
2022/09/15 10:16:04;;;;;;;2.22;0.55;;;16.50;99.90;;;16.15;100.00;96361.19;4977865;28;20118;-40
2022/09/15 10:18:38;;;;;;;11.95;0.98;;;16.50;99.90;;;16.13;100.00;96370.22;4961872;28;20034;-40
2022/09/15 10:21:07;;;;;;;1.98;0.50;;;16.40;99.90;;;16.07;100.00;96374.19;4964316;28;20069;-40
2022/09/15 10:23:33;;;;;;;3.53;0.85;;;16.40;99.90;;;16.05;100.00;96370.81;4977320;28;20042;-40
2022/09/15 10:26:19;;;;;;;2.15;0.70;;;16.40;99.90;;;16.01;100.00;96380.00;4980975;28;20057;-40
2022/09/15 10:29:23;;;;;;;3.33;0.40;;;16.30;99.90;;;15.82;100.00;96384.00;4976057;28;20035;-40
2022/09/15 10:31:49;;;;;;;3.40;0.77;;;16.20;99.90;;;15.72;100.00;96380.31;4960372;28;20119;-40
2022/09/15 10:34:29;;;;;;;4.43;0.45;;;16.10;99.90;;;15.64;100.00;96395.97;4977976;28;20019;-40